Time;durP1;ratioP1;P1;durP2;ratioP2;P2;SDS_P1;SDS_P2;PMS_P1;PMS_P2;Temp;Humidity;BMP_temperature;BMP_pressure;BME280_temperature;BME280_humidity;BME280_pressure;Samples;Min_cycle;Max_cycle;Signal;HPM_P1;HPM_P2
2023/07/31 00:00:26;;;;;;;1999.90;999.90;;;;;;;18.22;100.00;95462.75;5024391;28;20206;-61
2023/07/31 00:02:52;;;;;;;1999.90;999.90;;;;;;;18.17;100.00;95460.59;5023922;28;20221;-62
2023/07/31 00:05:18;;;;;;;1999.90;999.90;;;;;;;18.07;100.00;95458.97;5024167;28;20215;-61
2023/07/31 00:07:43;;;;;;;1999.90;999.90;;;;;;;18.05;100.00;95461.41;5024221;28;20209;-61
2023/07/31 00:10:09;;;;;;;1999.90;999.90;;;;;;;17.94;100.00;95456.25;5024290;28;20249;-61
2023/07/31 00:12:34;;;;;;;1999.90;999.90;;;;;;;17.87;100.00;95455.72;5024014;28;20191;-61
2023/07/31 00:14:59;;;;;;;1999.90;999.90;;;;;;;17.81;100.00;95452.00;5023979;28;20175;-61
2023/07/31 00:17:25;;;;;;;1999.90;999.90;;;;;;;17.73;100.00;95439.63;5024093;28;20245;-61
2023/07/31 00:19:50;;;;;;;1999.90;999.90;;;;;;;17.65;100.00;95449.41;5024429;28;20203;-61
2023/07/31 00:22:16;;;;;;;1999.90;999.90;;;;;;;17.57;100.00;95451.66;5024170;28;20198;-61
2023/07/31 00:24:41;;;;;;;1999.90;999.90;;;;;;;17.47;100.00;95446.47;5023983;28;20210;-61
2023/07/31 00:27:07;;;;;;;1999.90;999.90;;;;;;;17.40;100.00;95446.66;5023849;28;20266;-61
2023/07/31 00:29:32;;;;;;;1999.90;999.90;;;;;;;17.36;100.00;95443.25;5023791;28;20210;-62
2023/07/31 00:31:57;;;;;;;1999.90;999.90;;;;;;;17.33;100.00;95438.66;5023723;28;20198;-61
2023/07/31 00:34:23;;;;;;;1999.90;999.90;;;;;;;17.30;100.00;95429.25;5024040;28;20269;-61
2023/07/31 00:36:48;;;;;;;1999.90;999.90;;;;;;;17.31;100.00;95432.78;5024296;28;20194;-61
2023/07/31 00:39:13;;;;;;;1999.90;999.90;;;;;;;17.28;100.00;95430.91;5023916;28;20231;-60
2023/07/31 00:41:39;;;;;;;1999.90;999.90;;;;;;;17.24;100.00;95424.75;5023903;28;20194;-61
2023/07/31 00:44:04;;;;;;;1999.90;999.90;;;;;;;17.17;100.00;95423.00;5024082;28;20207;-60
2023/07/31 00:46:29;;;;;;;1999.90;999.90;;;;;;;17.13;100.00;95418.81;5023596;28;20187;-60
2023/07/31 00:48:55;;;;;;;1999.90;999.90;;;;;;;17.08;100.00;95411.09;5024212;28;20195;-60
2023/07/31 00:51:20;;;;;;;1999.90;999.90;;;;;;;17.05;100.00;95411.97;5023674;28;20195;-62
2023/07/31 00:53:47;;;;;;;1999.90;999.90;;;;;;;17.00;100.00;95410.56;5023598;28;20191;-60
2023/07/31 00:56:12;;;;;;;1999.90;999.90;;;;;;;16.95;100.00;95411.13;5023566;28;20218;-62
2023/07/31 00:58:37;;;;;;;1999.90;999.90;;;;;;;16.92;100.00;95413.97;5023525;28;20195;-60
2023/07/31 01:01:03;;;;;;;1999.90;999.90;;;;;;;16.91;100.00;95413.22;5023535;28;20234;-61
2023/07/31 01:03:28;;;;;;;1999.90;999.90;;;;;;;16.90;100.00;95402.63;5023549;28;20203;-60
2023/07/31 01:06:23;;;;;;;1999.90;999.90;;;;;;;16.90;100.00;95399.88;5023622;28;20217;-61
2023/07/31 01:09:11;;;;;;;1999.90;999.90;;;;;;;16.91;100.00;95401.41;5023742;28;20246;-61
2023/07/31 01:11:48;;;;;;;1999.90;999.90;;;;;;;16.87;100.00;95398.78;5023738;28;20198;-61
2023/07/31 01:14:13;;;;;;;1999.90;999.90;;;;;;;16.80;100.00;95395.47;5023303;28;20194;-61
2023/07/31 01:16:39;;;;;;;1999.90;999.90;;;;;;;16.78;100.00;95386.88;5023400;28;20191;-60
2023/07/31 01:19:06;;;;;;;1999.90;999.90;;;;;;;16.80;100.00;95389.94;5023400;28;20183;-60
2023/07/31 01:21:53;;;;;;;1999.90;999.90;;;;;;;16.84;100.00;95385.09;5023355;28;20190;-60
2023/07/31 01:24:24;;;;;;;1999.90;999.90;;;;;;;16.84;100.00;95379.56;5023236;28;20207;-59
2023/07/31 01:27:30;;;;;;;1999.90;999.90;;;;;;;16.86;100.00;95382.66;5023386;28;20190;-60
2023/07/31 01:29:58;;;;;;;1999.90;999.90;;;;;;;16.93;100.00;95376.91;5024243;28;20195;-59
2023/07/31 01:32:27;;;;;;;1999.90;999.90;;;;;;;16.95;100.00;95368.94;5026948;28;20195;-59
2023/07/31 01:34:53;;;;;;;1999.90;999.90;;;;;;;16.96;100.00;95359.44;5026874;28;20197;-59
2023/07/31 01:37:18;;;;;;;1999.90;999.90;;;;;;;17.01;100.00;95372.69;5026879;28;20182;-60
2023/07/31 01:39:44;;;;;;;1999.90;999.90;;;;;;;17.02;100.00;95380.53;5026624;28;20187;-60
2023/07/31 01:42:09;;;;;;;1999.90;999.90;;;;;;;17.03;100.00;95373.00;5026856;28;20319;-60
2023/07/31 01:44:35;;;;;;;1999.90;999.90;;;;;;;16.98;100.00;95370.81;5026684;28;20275;-60
2023/07/31 01:47:00;;;;;;;1999.90;999.90;;;;;;;16.98;100.00;95368.06;5026554;28;20221;-59
2023/07/31 01:49:26;;;;;;;1999.90;999.90;;;;;;;17.01;100.00;95367.94;5026318;28;20191;-60
2023/07/31 01:51:51;;;;;;;1999.90;999.90;;;;;;;17.01;100.00;95365.19;5026995;28;20176;-60
2023/07/31 01:54:17;;;;;;;1999.90;999.90;;;;;;;17.01;100.00;95361.66;5026821;28;20197;-60
2023/07/31 01:56:42;;;;;;;1999.90;999.90;;;;;;;17.01;100.00;95361.66;5026735;28;20183;-60
2023/07/31 01:59:07;;;;;;;1999.90;999.90;;;;;;;17.00;100.00;95355.38;5026426;28;20198;-60
2023/07/31 02:01:33;;;;;;;1999.90;999.90;;;;;;;17.05;100.00;95362.31;5026365;28;20229;-60
2023/07/31 02:03:58;;;;;;;1999.90;999.90;;;;;;;17.06;100.00;95358.31;5026262;28;20214;-60
2023/07/31 02:06:23;;;;;;;1999.90;999.90;;;;;;;17.10;100.00;95367.25;5026254;28;20214;-60
2023/07/31 02:08:49;;;;;;;1999.90;999.90;;;;;;;17.14;100.00;95359.63;5026210;28;20191;-59
2023/07/31 02:11:14;;;;;;;1999.90;999.90;;;;;;;17.16;100.00;95351.69;5026224;28;20194;-60
2023/07/31 02:13:40;;;;;;;1999.90;999.90;;;;;;;17.21;100.00;95353.88;5026044;28;20206;-60
2023/07/31 02:16:05;;;;;;;1999.90;999.90;;;;;;;17.22;100.00;95353.41;5026161;28;20210;-60
2023/07/31 02:18:30;;;;;;;1999.90;999.90;;;;;;;17.24;100.00;95352.97;5026095;28;20249;-59
2023/07/31 02:20:56;;;;;;;1999.90;999.90;;;;;;;17.25;100.00;95349.00;5025793;28;20209;-60
2023/07/31 02:23:21;;;;;;;1999.90;999.90;;;;;;;17.23;100.00;95338.41;5026567;28;20202;-60
2023/07/31 02:25:47;;;;;;;1999.90;999.90;;;;;;;17.20;100.00;95342.06;5026070;28;20261;-60
2023/07/31 02:28:12;;;;;;;1999.90;999.90;;;;;;;17.18;100.00;95338.19;5026224;28;20230;-59
2023/07/31 02:30:38;;;;;;;1999.90;999.90;;;;;;;17.17;100.00;95331.13;5026122;28;20202;-59
2023/07/31 02:33:04;;;;;;;1999.90;999.90;;;;;;;17.16;100.00;95341.44;5025749;28;20195;-59
2023/07/31 02:35:30;;;;;;;1999.90;999.90;;;;;;;17.14;100.00;95337.53;5026000;28;20286;-59
2023/07/31 02:37:55;;;;;;;1999.90;999.90;;;;;;;17.12;100.00;95334.47;5025587;28;20191;-60
2023/07/31 02:40:21;;;;;;;1999.90;999.90;;;;;;;17.10;100.00;95326.63;5025650;28;20202;-59
2023/07/31 02:42:46;;;;;;;1999.90;999.90;;;;;;;17.12;100.00;95326.19;5025263;28;20203;-59
2023/07/31 02:45:11;;;;;;;1999.90;999.90;;;;;;;17.10;100.00;95323.09;5025580;28;20191;-59
2023/07/31 02:47:37;;;;;;;1999.90;999.90;;;;;;;17.06;100.00;95322.47;5025549;28;20186;-59
2023/07/31 02:50:03;;;;;;;1999.90;999.90;;;;;;;17.00;100.00;95315.97;5025605;28;20217;-59
2023/07/31 02:52:28;;;;;;;1999.90;999.90;;;;;;;16.92;100.00;95315.44;5025617;28;20222;-59
2023/07/31 02:54:54;;;;;;;1999.90;999.90;;;;;;;16.84;100.00;95313.34;5025831;28;20177;-59
2023/07/31 02:57:19;;;;;;;1999.90;999.90;;;;;;;16.76;100.00;95309.31;5025762;28;20274;-60
2023/07/31 02:59:44;;;;;;;1999.90;999.90;;;;;;;16.70;100.00;95308.31;5025179;28;20191;-61
2023/07/31 03:02:11;;;;;;;1999.90;999.90;;;;;;;16.60;100.00;95298.41;5025596;28;20201;-60
2023/07/31 03:04:36;;;;;;;1999.90;999.90;;;;;;;16.52;100.00;95291.56;5025059;28;20199;-60
2023/07/31 03:07:02;;;;;;;1999.90;999.90;;;;;;;16.48;100.00;95294.47;5025094;28;20191;-61
2023/07/31 03:09:27;;;;;;;1999.90;999.90;;;;;;;16.43;100.00;95287.50;5024954;28;20191;-61
2023/07/31 03:11:52;;;;;;;1999.90;999.90;;;;;;;16.42;100.00;95276.16;5025065;28;20281;-60
2023/07/31 03:14:18;;;;;;;1999.90;999.90;;;;;;;16.39;100.00;95273.03;5025140;28;20262;-61
2023/07/31 03:16:43;;;;;;;1999.90;999.90;;;;;;;16.36;100.00;95271.16;5025043;28;20188;-61
2023/07/31 03:19:08;;;;;;;1999.90;999.90;;;;;;;16.32;100.00;95262.25;5024748;28;20258;-59
2023/07/31 03:21:34;;;;;;;1999.90;999.90;;;;;;;16.28;100.00;95260.81;5025011;28;20194;-59
2023/07/31 03:23:59;;;;;;;1999.90;999.90;;;;;;;16.20;100.00;95257.53;5025127;28;20238;-60
2023/07/31 03:26:24;;;;;;;1999.90;999.90;;;;;;;16.12;100.00;95250.72;5025180;28;21134;-60
2023/07/31 03:28:50;;;;;;;1999.90;999.90;;;;;;;16.11;100.00;95240.88;5025064;28;20225;-60
2023/07/31 03:31:15;;;;;;;1999.90;999.90;;;;;;;16.09;100.00;95243.31;5024857;28;20191;-60
2023/07/31 03:33:40;;;;;;;1999.90;999.90;;;;;;;16.03;100.00;95245.06;5024859;28;20270;-59
2023/07/31 03:36:06;;;;;;;1999.90;999.90;;;;;;;15.97;100.00;95235.84;5025026;28;20182;-59
2023/07/31 03:38:31;;;;;;;1999.90;999.90;;;;;;;15.94;100.00;95225.69;5024651;28;20195;-59
2023/07/31 03:40:58;;;;;;;1999.90;999.90;;;;;;;15.92;100.00;95228.13;5024677;28;20193;-59
2023/07/31 03:43:24;;;;;;;1999.90;999.90;;;;;;;15.89;100.00;95217.97;5024345;28;20215;-61
2023/07/31 03:45:50;;;;;;;1999.90;999.90;;;;;;;15.87;100.00;95206.63;5024504;28;20195;-59
2023/07/31 03:48:16;;;;;;;1999.90;999.90;;;;;;;15.87;100.00;95197.59;5024608;28;20195;-59
2023/07/31 03:50:41;;;;;;;1999.90;999.90;;;;;;;15.88;100.00;95188.16;5024589;28;20194;-59
2023/07/31 03:53:07;;;;;;;1999.90;999.90;;;;;;;15.89;100.00;95176.66;5023846;28;20253;-59
2023/07/31 03:55:32;;;;;;;1999.90;999.90;;;;;;;15.91;100.00;95171.50;5024741;28;20202;-59
2023/07/31 03:57:57;;;;;;;1999.90;999.90;;;;;;;15.91;100.00;95171.50;5024823;28;20201;-59
2023/07/31 04:00:23;;;;;;;1999.90;999.90;;;;;;;15.97;100.00;95161.47;5024658;28;20213;-60
2023/07/31 04:02:48;;;;;;;1999.90;999.90;;;;;;;16.03;100.00;95150.66;5024638;28;20257;-59
2023/07/31 04:05:13;;;;;;;1999.90;999.90;;;;;;;16.05;100.00;95149.00;5024776;28;20194;-60
2023/07/31 04:07:39;;;;;;;1999.90;999.90;;;;;;;16.07;100.00;95146.56;5024093;28;20198;-59
2023/07/31 04:10:04;;;;;;;1999.90;999.90;;;;;;;16.07;100.00;95143.78;5024039;28;20191;-60
2023/07/31 04:12:30;;;;;;;1999.90;999.90;;;;;;;16.07;100.00;95143.78;5024229;28;20187;-60
2023/07/31 04:14:55;;;;;;;1999.90;999.90;;;;;;;16.09;100.00;95130.38;5024140;28;20191;-60
2023/07/31 04:17:20;;;;;;;1999.90;999.90;;;;;;;16.11;100.00;95125.16;5024548;28;20194;-60
2023/07/31 04:19:46;;;;;;;1999.90;999.90;;;;;;;16.12;100.00;95129.47;5024046;28;20230;-61
2023/07/31 04:22:11;;;;;;;1999.90;999.90;;;;;;;16.15;100.00;95128.59;5024449;28;20227;-60
2023/07/31 04:24:36;;;;;;;1999.90;999.90;;;;;;;16.19;100.00;95126.47;5024265;28;20211;-61
2023/07/31 04:27:02;;;;;;;1999.90;999.90;;;;;;;16.22;100.00;95133.84;5023965;28;20234;-60
2023/07/31 04:29:27;;;;;;;1999.90;999.90;;;;;;;16.38;100.00;95128.19;5024573;28;20199;-60
2023/07/31 04:31:53;;;;;;;1999.90;999.90;;;;;;;16.44;100.00;95136.69;5024404;28;20197;-59
2023/07/31 04:34:18;;;;;;;1999.90;999.90;;;;;;;16.51;100.00;95139.19;5023838;28;20191;-60
2023/07/31 04:36:43;;;;;;;1999.90;999.90;;;;;;;16.59;100.00;95145.19;5024218;28;20194;-59
2023/07/31 04:39:09;;;;;;;1999.90;999.90;;;;;;;16.65;100.00;95151.69;5023808;28;20274;-60
2023/07/31 04:41:34;;;;;;;1999.90;999.90;;;;;;;16.67;100.00;95144.50;5023663;28;20191;-60
2023/07/31 04:43:59;;;;;;;1999.90;999.90;;;;;;;16.74;100.00;95149.00;5023800;28;20211;-60
2023/07/31 04:46:25;;;;;;;1999.90;999.90;;;;;;;16.84;100.00;95150.59;5023755;28;20190;-60
2023/07/31 04:48:50;;;;;;;1999.90;999.90;;;;;;;17.17;100.00;95149.75;5023887;28;20199;-59
2023/07/31 04:51:15;;;;;;;1999.90;999.90;;;;;;;17.47;100.00;95167.56;5023931;28;20219;-60
2023/07/31 04:53:41;;;;;;;1999.90;999.90;;;;;;;17.58;100.00;95184.50;5023799;28;20218;-60
2023/07/31 04:56:06;;;;;;;1999.90;999.90;;;;;;;17.58;100.00;95207.38;5023616;28;20260;-60
2023/07/31 04:58:31;;;;;;;1999.90;999.90;;;;;;;17.61;100.00;95213.97;5023517;28;20199;-59
2023/07/31 05:00:57;;;;;;;1999.90;999.90;;;;;;;18.12;100.00;95223.41;5023847;28;20207;-60
2023/07/31 05:03:22;;;;;;;1999.90;999.90;;;;;;;18.89;100.00;95236.81;5023681;28;20238;-60
2023/07/31 05:05:47;;;;;;;1999.90;999.90;;;;;;;19.75;100.00;95255.53;5027243;28;20202;-59
2023/07/31 05:08:13;;;;;;;1999.90;999.90;;;;;;;20.51;100.00;95286.41;5027631;28;20209;-66
2023/07/31 05:10:38;;;;;;;1999.90;999.90;;;;;;;21.13;100.00;95306.72;5027381;28;20261;-61
2023/07/31 05:13:03;;;;;;;1999.90;999.90;;;;;;;21.64;100.00;95323.91;5027643;28;20198;-61
2023/07/31 05:15:29;;;;;;;1999.90;999.90;;;;;;;22.30;100.00;95333.50;5027253;28;20214;-62
2023/07/31 05:17:55;;;;;;;1999.90;999.90;;;;;;;22.77;100.00;95332.50;5027435;28;20191;-61
2023/07/31 05:20:21;;;;;;;1999.90;999.90;;;;;;;22.90;100.00;95337.78;5027240;28;20214;-60
2023/07/31 05:22:46;;;;;;;1999.90;999.90;;;;;;;23.53;100.00;95345.22;5027108;28;20233;-62
2023/07/31 05:25:11;;;;;;;1999.90;999.90;;;;;;;23.98;100.00;95344.50;5027449;28;20227;-61
2023/07/31 05:27:37;;;;;;;1999.90;999.90;;;;;;;23.70;100.00;95351.75;5027459;28;20262;-61
2023/07/31 05:30:02;;;;;;;1999.90;999.90;;;;;;;23.54;100.00;95353.13;5027120;28;20203;-61
2023/07/31 05:32:28;;;;;;;1999.90;999.90;;;;;;;23.21;100.00;95347.09;5027220;28;20211;-62
2023/07/31 05:34:53;;;;;;;1999.90;999.90;;;;;;;23.74;100.00;95341.94;5027332;28;20226;-61
2023/07/31 05:37:19;;;;;;;1999.90;999.90;;;;;;;24.05;100.00;95330.13;5026685;28;20294;-61
2023/07/31 05:39:45;;;;;;;1999.90;999.90;;;;;;;23.66;100.00;95345.63;5026635;28;20241;-61
2023/07/31 05:42:10;;;;;;;1999.90;999.90;;;;;;;24.24;100.00;95339.69;5026630;28;20202;-62
2023/07/31 05:44:35;;;;;;;1999.90;999.90;;;;;;;24.57;100.00;95334.38;5026512;28;20235;-60
2023/07/31 05:47:01;;;;;;;1999.90;999.90;;;;;;;24.80;100.00;95341.72;5026650;28;20199;-64
2023/07/31 05:49:26;;;;;;;1999.90;999.90;;;;;;;24.68;100.00;95334.50;5026460;28;20195;-60
2023/07/31 05:51:51;;;;;;;1999.90;999.90;;;;;;;24.79;100.00;95335.38;5026407;28;20206;-62
2023/07/31 05:54:17;;;;;;;1999.90;999.90;;;;;;;24.77;100.00;95337.88;5026918;28;20191;-60
2023/07/31 05:56:42;;;;;;;1999.90;999.90;;;;;;;24.62;100.00;95342.09;5026165;28;20258;-61
2023/07/31 05:59:09;;;;;;;1999.90;999.90;;;;;;;24.12;100.00;95338.06;5026253;28;20257;-61
2023/07/31 06:01:35;;;;;;;1999.90;999.90;;;;;;;23.43;100.00;95339.03;5026107;28;20175;-62
2023/07/31 06:04:01;;;;;;;1999.90;999.90;;;;;;;23.54;100.00;95341.19;5026833;28;20211;-62
2023/07/31 06:06:26;;;;;;;1999.90;999.90;;;;;;;23.58;100.00;95339.72;5026112;28;20195;-63
2023/07/31 06:08:52;;;;;;;1999.90;999.90;;;;;;;23.29;100.00;95339.09;5026599;28;20195;-62
2023/07/31 06:11:20;;;;;;;1999.90;999.90;;;;;;;23.36;100.00;95333.09;5026413;28;20296;-62
2023/07/31 06:13:46;;;;;;;1999.90;999.90;;;;;;;23.57;100.00;95337.41;5025908;28;20205;-62
2023/07/31 06:16:12;;;;;;;1999.90;999.90;;;;;;;23.89;100.00;95333.47;5025373;28;20202;-62
2023/07/31 06:18:37;;;;;;;1999.90;999.90;;;;;;;24.61;100.00;95329.34;5026414;28;20198;-61
2023/07/31 06:21:02;;;;;;;1999.90;999.90;;;;;;;24.75;100.00;95342.44;5025575;28;20259;-62
2023/07/31 06:23:28;;;;;;;1999.90;999.90;;;;;;;25.02;100.00;95341.88;5025864;28;20285;-60
2023/07/31 06:25:53;;;;;;;1999.90;999.90;;;;;;;25.09;100.00;95346.97;5025721;28;20253;-60
2023/07/31 06:28:18;;;;;;;1999.90;999.90;;;;;;;24.95;100.00;95347.94;5025883;28;20202;-60
2023/07/31 06:30:44;;;;;;;1999.90;999.90;;;;;;;25.06;100.00;95348.00;5025840;28;20191;-61
2023/07/31 06:33:09;;;;;;;1999.90;999.90;;;;;;;24.75;100.00;95353.63;5026139;28;20179;-60
2023/07/31 06:35:34;;;;;;;1999.90;999.90;;;;;;;24.67;100.00;95350.53;5025529;28;20195;-60
2023/07/31 06:38:01;;;;;;;1999.90;999.90;;;;;;;24.32;100.00;95346.34;5025847;28;20233;-60
2023/07/31 06:40:26;;;;;;;1999.90;999.90;;;;;;;23.88;100.00;95351.47;5026200;28;20205;-61
2023/07/31 06:42:52;;;;;;;1999.90;999.90;;;;;;;23.59;100.00;95357.19;5025503;28;20230;-60
2023/07/31 06:45:17;;;;;;;1999.90;999.90;;;;;;;23.35;100.00;95353.88;5025576;28;20187;-60
2023/07/31 06:47:43;;;;;;;1999.90;999.90;;;;;;;23.05;100.00;95358.75;5025863;28;20191;-60
2023/07/31 06:50:08;;;;;;;1999.90;999.90;;;;;;;22.87;100.00;95358.22;5025564;28;20199;-60
2023/07/31 06:52:33;;;;;;;1999.90;999.90;;;;;;;22.98;100.00;95353.56;5025428;28;20191;-60
2023/07/31 06:55:20;;;;;;;1999.90;999.90;;;;;;;22.90;100.00;95357.28;5025947;28;20198;-63
2023/07/31 06:57:50;;;;;;;1999.90;999.90;;;;;;;23.01;100.00;95346.28;5025324;28;20191;-61
2023/07/31 07:00:17;;;;;;;1999.90;999.90;;;;;;;23.15;100.00;95342.66;5025478;28;20215;-60
2023/07/31 07:02:43;;;;;;;1999.90;999.90;;;;;;;23.29;100.00;95333.50;5025467;28;20217;-61
2023/07/31 07:05:08;;;;;;;1999.90;999.90;;;;;;;23.07;100.00;95335.97;5024906;28;20230;-60
2023/07/31 07:07:35;;;;;;;1999.90;999.90;;;;;;;22.92;100.00;95335.25;5025326;28;20281;-60
2023/07/31 07:10:00;;;;;;;1999.90;999.90;;;;;;;22.90;100.00;95334.97;5024918;28;20191;-61
2023/07/31 07:12:29;;;;;;;1999.90;999.90;;;;;;;22.95;100.00;95337.06;5025111;28;20270;-60
2023/07/31 07:14:54;;;;;;;1999.90;999.90;;;;;;;23.26;100.00;95340.81;5025342;28;20210;-60
2023/07/31 07:17:19;;;;;;;1999.90;999.90;;;;;;;23.58;100.00;95333.38;5025364;28;20266;-61
2023/07/31 07:19:48;;;;;;;1999.90;999.90;;;;;;;23.77;100.00;95334.59;5024731;28;20206;-60
2023/07/31 07:22:13;;;;;;;1999.90;999.90;;;;;;;23.87;100.00;95330.41;5025112;28;20306;-60
2023/07/31 07:24:39;;;;;;;1999.90;999.90;;;;;;;24.42;100.00;95328.94;5024850;28;20223;-60
2023/07/31 07:27:04;;;;;;;1999.90;999.90;;;;;;;25.10;100.00;95331.75;5024211;28;20198;-61
2023/07/31 07:29:30;;;;;;;1999.90;999.90;;;;;;;25.95;100.00;95336.00;5024119;28;20179;-60
2023/07/31 07:31:55;;;;;;;1999.90;999.90;;;;;;;26.85;100.00;95333.59;5025000;28;20190;-59
2023/07/31 07:34:24;;;;;;;1999.90;999.90;;;;;;;26.27;100.00;95334.53;5025059;28;20193;-60
2023/07/31 07:36:49;;;;;;;1999.90;999.90;;;;;;;27.31;100.00;95330.97;5024747;28;20214;-60
2023/07/31 07:39:15;;;;;;;1999.90;999.90;;;;;;;28.46;100.00;95328.16;5024360;28;20190;-60
2023/07/31 07:41:40;;;;;;;1999.90;999.90;;;;;;;29.07;97.44;95320.78;5024351;28;20206;-60
2023/07/31 07:44:06;;;;;;;1999.90;999.90;;;;;;;30.42;88.65;95322.97;5024418;28;20202;-59
2023/07/31 07:46:31;;;;;;;1999.90;999.90;;;;;;;30.15;81.16;95321.31;5024440;28;20237;-59
2023/07/31 07:48:56;;;;;;;1999.90;999.90;;;;;;;30.11;79.94;95320.81;5024026;28;20198;-59
2023/07/31 07:51:22;;;;;;;1999.90;999.90;;;;;;;30.54;77.62;95318.69;5024871;28;20187;-60
2023/07/31 07:53:47;;;;;;;1999.90;999.90;;;;;;;30.53;77.67;95311.53;5024322;28;20286;-58
2023/07/31 07:56:12;;;;;;;1999.90;999.90;;;;;;;31.01;73.11;95312.03;5024380;28;20195;-60
2023/07/31 07:58:38;;;;;;;1999.90;999.90;;;;;;;31.03;73.20;95303.03;5024693;28;20187;-60
2023/07/31 08:01:03;;;;;;;1999.90;999.90;;;;;;;30.66;76.66;95303.09;5024772;28;20198;-59
2023/07/31 08:03:28;;;;;;;1999.90;999.90;;;;;;;30.57;76.35;95295.06;5024242;28;20249;-61
2023/07/31 08:06:00;;;;;;;1999.90;999.90;;;;;;;30.48;74.98;95292.66;5024188;28;20282;-59
2023/07/31 08:08:26;;;;;;;1999.90;999.90;;;;;;;30.87;75.06;95289.97;5024479;28;20195;-59
2023/07/31 08:10:51;;;;;;;1999.90;999.90;;;;;;;31.14;67.61;95291.53;5023936;28;20270;-60
2023/07/31 08:13:17;;;;;;;1999.90;999.90;;;;;;;30.87;70.31;95289.97;5023994;28;20202;-60
2023/07/31 08:15:42;;;;;;;1999.90;999.90;;;;;;;30.74;70.44;95298.41;5023985;28;20195;-60
2023/07/31 08:18:08;;;;;;;1999.90;999.90;;;;;;;31.30;70.19;95293.31;5024343;28;20191;-61
2023/07/31 08:20:34;;;;;;;1999.90;999.90;;;;;;;32.54;60.68;95303.81;5023700;28;20202;-60
2023/07/31 08:22:59;;;;;;;1999.90;999.90;;;;;;;32.29;60.99;95301.78;5023967;28;20210;-60
2023/07/31 08:25:25;;;;;;;1999.90;999.90;;;;;;;31.30;65.69;95310.25;5024044;28;20199;-60
2023/07/31 08:27:52;;;;;;;1999.90;999.90;;;;;;;31.73;65.05;95302.22;5023896;28;20206;-60
2023/07/31 08:30:18;;;;;;;1999.90;999.90;;;;;;;31.49;65.24;95299.63;5024301;28;20215;-60
2023/07/31 08:32:43;;;;;;;1999.90;999.90;;;;;;;30.50;71.01;95296.44;5024139;28;20198;-61
2023/07/31 08:35:09;;;;;;;1999.90;999.90;;;;;;;30.10;73.80;95283.44;5024550;28;20249;-61
2023/07/31 08:37:34;;;;;;;1999.90;999.90;;;;;;;29.16;79.16;95295.09;5024170;28;20262;-61
2023/07/31 08:39:59;;;;;;;1999.90;999.90;;;;;;;28.46;88.67;95291.59;5026183;28;20212;-60
2023/07/31 08:42:25;;;;;;;1999.90;999.90;;;;;;;28.13;91.26;95290.56;5027586;28;20214;-60
2023/07/31 08:44:52;;;;;;;1999.90;999.90;;;;;;;27.64;95.58;95288.75;5027776;28;20210;-59
2023/07/31 08:47:19;;;;;;;1999.90;999.90;;;;;;;27.00;98.04;95286.41;5027679;28;20229;-60
2023/07/31 08:49:46;;;;;;;1999.90;999.90;;;;;;;26.64;100.00;95281.84;5027841;28;20186;-60
2023/07/31 08:52:11;;;;;;;1999.90;999.90;;;;;;;25.81;100.00;95286.56;5027832;28;20218;-60
2023/07/31 08:54:36;;;;;;;1999.90;999.90;;;;;;;25.64;100.00;95282.97;5027585;28;20191;-61
2023/07/31 08:57:03;;;;;;;1999.90;999.90;;;;;;;25.57;100.00;95277.84;5027403;28;20187;-60
2023/07/31 08:59:31;;;;;;;1999.90;999.90;;;;;;;25.38;100.00;95280.31;5027602;28;20255;-61
2023/07/31 09:02:00;;;;;;;1999.90;999.90;;;;;;;24.97;100.00;95279.06;5027906;28;20206;-61
2023/07/31 09:04:26;;;;;;;1999.90;999.90;;;;;;;24.55;100.00;95275.47;5027754;28;20207;-60
2023/07/31 09:06:59;;;;;;;1999.90;999.90;;;;;;;24.58;100.00;95288.47;5027299;28;20221;-60
2023/07/31 09:09:24;;;;;;;1999.90;999.90;;;;;;;24.78;100.00;95282.78;5027711;28;20199;-60
2023/07/31 09:11:51;;;;;;;1999.90;999.90;;;;;;;25.11;100.00;95283.72;5027295;28;20206;-60
2023/07/31 09:14:18;;;;;;;1999.90;999.90;;;;;;;25.06;100.00;95287.25;5026879;28;20217;-60
2023/07/31 09:16:58;;;;;;;1999.90;999.90;;;;;;;25.30;100.00;95272.91;5027083;28;20262;-60
2023/07/31 09:19:29;;;;;;;1999.90;999.90;;;;;;;25.95;100.00;95282.81;5027022;28;20214;-60
2023/07/31 09:21:54;;;;;;;1999.90;999.90;;;;;;;26.60;100.00;95281.34;5027042;28;20190;-61
2023/07/31 09:24:31;;;;;;;1999.90;999.90;;;;;;;27.38;100.00;95273.53;5027368;28;20234;-61
2023/07/31 09:26:58;;;;;;;1999.90;999.90;;;;;;;28.20;97.65;95278.00;5027280;28;20249;-61
2023/07/31 09:29:24;;;;;;;1999.90;999.90;;;;;;;28.71;88.27;95271.47;5027174;28;20210;-60
2023/07/31 09:31:50;;;;;;;1999.90;999.90;;;;;;;28.44;88.02;95274.53;5027055;28;20273;-60
2023/07/31 09:34:16;;;;;;;1999.90;999.90;;;;;;;28.02;88.34;95273.78;5026809;28;20207;-60
2023/07/31 09:36:46;;;;;;;1999.90;999.90;;;;;;;27.94;90.92;95272.78;5026787;28;20262;-60
2023/07/31 09:39:13;;;;;;;1999.90;999.90;;;;;;;28.85;88.85;95266.72;5026698;28;20191;-60
2023/07/31 09:41:40;;;;;;;1999.90;999.90;;;;;;;29.07;85.33;95258.09;5026692;28;20187;-59
2023/07/31 09:44:06;;;;;;;1999.90;999.90;;;;;;;29.54;77.98;95267.78;5026583;28;20222;-61
2023/07/31 09:46:35;;;;;;;1999.90;999.90;;;;;;;30.04;77.23;95265.09;5026855;28;20194;-60
2023/07/31 09:49:11;;;;;;;1999.90;999.90;;;;;;;30.03;76.58;95260.75;5027009;28;20182;-60
2023/07/31 09:51:40;;;;;;;1999.90;999.90;;;;;;;30.89;70.86;95253.50;5025758;28;20218;-60
2023/07/31 09:54:13;;;;;;;1999.90;999.90;;;;;;;32.13;66.48;95255.66;5026239;28;20191;-60
2023/07/31 09:56:45;;;;;;;1999.90;999.90;;;;;;;32.60;59.20;95247.84;5026855;28;20244;-60
2023/07/31 09:59:12;;;;;;;1999.90;999.90;;;;;;;32.58;59.15;95252.53;5026371;28;20266;-60
2023/07/31 10:01:40;;;;;;;1999.90;999.90;;;;;;;32.62;60.53;95233.91;5026326;28;20258;-60
2023/07/31 10:04:08;;;;;;;1999.90;999.90;;;;;;;32.91;55.01;95231.91;5025857;28;20253;-60
2023/07/31 10:06:35;;;;;;;1999.90;999.90;;;;;;;31.93;58.85;95228.06;5026413;28;20202;-60
2023/07/31 10:09:01;;;;;;;1999.90;999.90;;;;;;;30.36;68.85;95223.63;5026337;28;20215;-60
2023/07/31 10:11:29;;;;;;;1999.90;999.90;;;;;;;30.22;70.90;95222.81;5025942;28;20190;-60
2023/07/31 10:13:55;;;;;;;1999.90;999.90;;;;;;;31.64;66.04;95220.72;5025912;28;20202;-60
2023/07/31 10:16:22;;;;;;;1999.90;999.90;;;;;;;32.02;63.25;95216.31;5026437;28;20195;-60
2023/07/31 10:18:48;;;;;;;1999.90;999.90;;;;;;;31.48;64.93;95204.13;5025889;28;20199;-60
2023/07/31 10:21:14;;;;;;;1999.90;999.90;;;;;;;31.35;65.02;95193.59;5026221;28;20199;-60
2023/07/31 10:23:42;;;;;;;1999.90;999.90;;;;;;;31.97;62.80;95197.41;5025897;28;20278;-61
2023/07/31 10:26:08;;;;;;;1999.90;999.90;;;;;;;32.58;57.41;95188.22;5025903;28;20266;-60
2023/07/31 10:28:34;;;;;;;1999.90;999.90;;;;;;;32.46;53.55;95187.00;5025562;28;20195;-61
2023/07/31 10:31:03;;;;;;;1999.90;999.90;;;;;;;32.59;58.51;95195.38;5025856;28;20199;-60
2023/07/31 10:33:28;;;;;;;1999.90;999.90;;;;;;;32.52;60.46;95184.75;5025606;28;20207;-59
2023/07/31 10:36:22;;;;;;;1999.90;999.90;;;;;;;31.89;60.27;95190.91;5025550;28;20262;-60
2023/07/31 10:38:50;;;;;;;1999.90;999.90;;;;;;;30.12;63.01;95187.09;5025238;28;20195;-59
2023/07/31 10:41:16;;;;;;;1999.90;999.90;;;;;;;30.25;66.81;95178.69;5025475;28;20222;-60
2023/07/31 10:43:41;;;;;;;1999.90;999.90;;;;;;;29.86;65.36;95181.34;5025436;28;20202;-60
2023/07/31 10:46:09;;;;;;;1999.90;999.90;;;;;;;29.94;70.14;95183.00;5025319;28;20245;-59